Time;durP1;ratioP1;P1;durP2;ratioP2;P2;SDS_P1;SDS_P2;PMS_P1;PMS_P2;Temp;Humidity;BMP_temperature;BMP_pressure;BME280_temperature;BME280_humidity;BME280_pressure;Samples;Min_cycle;Max_cycle;Signal;HPM_P1;HPM_P2
2022/03/06 00:01:51;;;;;;;;;;;2.20;45.70;;;;;;5056686;28;19919;-89
2022/03/06 00:04:16;;;;;;;;;;;2.10;45.70;;;;;;5038084;28;20010;-89
2022/03/06 00:06:42;;;;;;;;;;;2.20;45.70;;;;;;5037386;28;19912;-88
2022/03/06 00:09:07;;;;;;;;;;;2.10;45.70;;;;;;5035533;28;19925;-87
2022/03/06 00:11:33;;;;;;;;;;;2.00;45.80;;;;;;5035132;28;19919;-87
2022/03/06 00:13:58;;;;;;;;;;;2.10;45.80;;;;;;5046707;28;20339;-87
2022/03/06 00:16:24;;;;;;;;;;;2.00;45.70;;;;;;5054326;28;19913;-88
2022/03/06 00:18:49;;;;;;;;;;;2.00;45.80;;;;;;5036038;28;19921;-88
2022/03/06 00:21:15;;;;;;;;;;;2.00;45.80;;;;;;5035796;28;19920;-88
2022/03/06 00:23:40;;;;;;;;;;;1.90;45.90;;;;;;5053223;28;19928;-88
2022/03/06 00:26:07;;;;;;;;;;;1.90;45.90;;;;;;5035172;28;20385;-87
2022/03/06 00:28:33;;;;;;;;;;;1.90;45.90;;;;;;5035968;28;19912;-88
2022/03/06 00:31:01;;;;;;;;;;;1.90;46.00;;;;;;5035510;28;19913;-88
2022/03/06 00:33:27;;;;;;;;;;;1.80;46.00;;;;;;5035557;28;19975;-87
2022/03/06 00:35:52;;;;;;;;;;;1.80;46.10;;;;;;5053271;28;19917;-88
2022/03/06 00:38:17;;;;;;;;;;;1.80;46.10;;;;;;5053149;28;19956;-88
2022/03/06 00:40:44;;;;;;;;;;;1.80;46.10;;;;;;5052964;28;20335;-89
2022/03/06 00:43:09;;;;;;;;;;;1.70;46.10;;;;;;5021796;28;19917;-89
2022/03/06 00:45:34;;;;;;;;;;;1.70;46.10;;;;;;5032829;28;19929;-87
2022/03/06 00:48:00;;;;;;;;;;;1.70;46.10;;;;;;5052124;28;19920;-88
2022/03/06 00:50:26;;;;;;;;;;;1.70;46.20;;;;;;5058504;28;19932;-89
2022/03/06 00:52:52;;;;;;;;;;;1.70;46.30;;;;;;5072894;28;19919;-88
2022/03/06 00:55:18;;;;;;;;;;;1.60;46.20;;;;;;5072713;28;19927;-89
2022/03/06 00:57:44;;;;;;;;;;;1.60;46.30;;;;;;5052190;28;20022;-87
2022/03/06 01:00:10;;;;;;;;;;;1.60;46.30;;;;;;5072557;28;19920;-88
2022/03/06 01:02:35;;;;;;;;;;;1.60;46.30;;;;;;5040562;28;19913;-90
2022/03/06 01:05:02;;;;;;;;;;;1.60;46.40;;;;;;5034371;28;20357;-89
2022/03/06 01:07:28;;;;;;;;;;;1.60;46.40;;;;;;5052894;28;19916;-88
2022/03/06 01:09:53;;;;;;;;;;;1.60;46.50;;;;;;5054572;28;20696;-88
2022/03/06 01:12:19;;;;;;;;;;;1.60;46.50;;;;;;5054644;28;19916;-88
2022/03/06 01:14:45;;;;;;;;;;;1.50;46.60;;;;;;5045583;28;19925;-88
2022/03/06 01:17:10;;;;;;;;;;;1.50;46.60;;;;;;5051919;28;20405;-88
2022/03/06 01:19:36;;;;;;;;;;;1.60;46.70;;;;;;5066604;28;20618;-88
2022/03/06 01:22:01;;;;;;;;;;;1.50;46.80;;;;;;5071041;28;19912;-88
2022/03/06 01:24:27;;;;;;;;;;;1.50;46.80;;;;;;5071968;28;20211;-88
2022/03/06 01:26:52;;;;;;;;;;;1.60;46.80;;;;;;5071431;28;20007;-87
2022/03/06 01:29:18;;;;;;;;;;;1.60;46.90;;;;;;5053717;28;19920;-88
2022/03/06 01:31:44;;;;;;;;;;;1.60;46.90;;;;;;5051273;28;19970;-87
2022/03/06 01:34:10;;;;;;;;;;;1.60;47.00;;;;;;5059344;28;19946;-88
2022/03/06 01:36:37;;;;;;;;;;;1.70;47.20;;;;;;5062804;28;19919;-87
2022/03/06 01:39:03;;;;;;;;;;;1.80;47.20;;;;;;5069771;28;19920;-88
2022/03/06 01:41:32;;;;;;;;;;;1.80;47.30;;;;;;5059535;28;19962;-88
2022/03/06 01:43:57;;;;;;;;;;;1.90;47.30;;;;;;5063668;28;19955;-88
2022/03/06 01:46:23;;;;;;;;;;;2.00;47.20;;;;;;5071857;28;20145;-87
2022/03/06 01:48:48;;;;;;;;;;;2.10;47.20;;;;;;5071734;28;19912;-88
2022/03/06 01:51:14;;;;;;;;;;;2.20;47.20;;;;;;5070511;28;20348;-88
2022/03/06 01:53:40;;;;;;;;;;;2.30;47.20;;;;;;5047418;28;19916;-87
2022/03/06 01:56:05;;;;;;;;;;;2.40;47.10;;;;;;5043014;28;19916;-88
2022/03/06 01:58:31;;;;;;;;;;;2.40;47.20;;;;;;5069403;28;19923;-88
2022/03/06 02:00:56;;;;;;;;;;;2.50;47.30;;;;;;5057062;28;20284;-88
2022/03/06 02:03:22;;;;;;;;;;;2.60;47.30;;;;;;5054924;28;19962;-88
2022/03/06 02:05:49;;;;;;;;;;;2.70;47.30;;;;;;5049303;28;19928;-87
2022/03/06 02:08:15;;;;;;;;;;;2.70;47.30;;;;;;5049920;28;19913;-87
2022/03/06 02:10:40;;;;;;;;;;;2.80;47.30;;;;;;5065847;28;19924;-88
2022/03/06 02:13:06;;;;;;;;;;;2.90;47.30;;;;;;5052094;28;20000;-88
2022/03/06 02:15:32;;;;;;;;;;;2.90;47.30;;;;;;5041874;28;19916;-88
2022/03/06 02:17:57;;;;;;;;;;;3.00;47.40;;;;;;5037775;28;19917;-88
2022/03/06 02:20:24;;;;;;;;;;;3.10;47.40;;;;;;5070860;28;19908;-88
2022/03/06 02:22:54;;;;;;;;;;;3.10;47.40;;;;;;5075863;28;19984;-88
2022/03/06 02:25:21;;;;;;;;;;;3.20;47.50;;;;;;5074549;28;20007;-88
2022/03/06 02:27:47;;;;;;;;;;;3.20;47.70;;;;;;5054601;28;19912;-88
2022/03/06 02:30:14;;;;;;;;;;;3.30;47.70;;;;;;5043023;28;20380;-88
2022/03/06 02:32:39;;;;;;;;;;;3.40;47.60;;;;;;5065095;28;19959;-87
2022/03/06 02:35:06;;;;;;;;;;;3.40;47.50;;;;;;5069445;28;19916;-89
2022/03/06 02:37:31;;;;;;;;;;;3.50;47.50;;;;;;5048497;28;19926;-87
2022/03/06 02:39:58;;;;;;;;;;;3.50;47.70;;;;;;5074925;28;19917;-87
2022/03/06 02:42:25;;;;;;;;;;;3.60;47.60;;;;;;5063687;28;19925;-88
2022/03/06 02:44:51;;;;;;;;;;;3.60;47.60;;;;;;5036453;28;19939;-89
2022/03/06 02:47:16;;;;;;;;;;;3.70;47.60;;;;;;5036780;28;19921;-89
2022/03/06 02:49:42;;;;;;;;;;;3.80;47.50;;;;;;5061992;28;20360;-88
2022/03/06 02:52:09;;;;;;;;;;;3.80;47.50;;;;;;5058193;28;19920;-87
2022/03/06 02:54:35;;;;;;;;;;;3.80;47.50;;;;;;5054753;28;19920;-88
2022/03/06 02:57:00;;;;;;;;;;;3.90;47.50;;;;;;5054717;28;19936;-88
2022/03/06 02:59:26;;;;;;;;;;;4.00;47.60;;;;;;5070483;28;19917;-88
2022/03/06 03:01:51;;;;;;;;;;;4.00;47.50;;;;;;5053949;28;19917;-88
2022/03/06 03:04:17;;;;;;;;;;;4.00;47.60;;;;;;5036494;28;19923;-89
2022/03/06 03:06:44;;;;;;;;;;;4.10;47.70;;;;;;5039285;28;20356;-88
2022/03/06 03:09:10;;;;;;;;;;;4.10;47.70;;;;;;5044698;28;19973;-88
2022/03/06 03:11:35;;;;;;;;;;;4.20;47.70;;;;;;5055265;28;20331;-88
2022/03/06 03:14:01;;;;;;;;;;;4.30;47.70;;;;;;5055039;28;20023;-88
2022/03/06 03:16:27;;;;;;;;;;;4.30;47.80;;;;;;5054566;28;19920;-87
2022/03/06 03:18:52;;;;;;;;;;;4.30;47.70;;;;;;5035401;28;20023;-88
2022/03/06 03:21:18;;;;;;;;;;;4.40;47.70;;;;;;5036147;28;19917;-88
2022/03/06 03:23:43;;;;;;;;;;;4.40;47.70;;;;;;5057790;28;20380;-87
2022/03/06 03:26:09;;;;;;;;;;;4.50;47.70;;;;;;5070750;28;20316;-89
2022/03/06 03:28:34;;;;;;;;;;;4.50;47.70;;;;;;5070376;28;19913;-88
2022/03/06 03:31:00;;;;;;;;;;;4.50;47.70;;;;;;5057168;28;19927;-89
2022/03/06 03:33:25;;;;;;;;;;;4.60;47.70;;;;;;5035560;28;19920;-89
2022/03/06 03:35:51;;;;;;;;;;;4.60;47.70;;;;;;5054478;28;20538;-88
2022/03/06 03:38:16;;;;;;;;;;;4.60;47.70;;;;;;5037172;28;19948;-89
2022/03/06 03:40:42;;;;;;;;;;;4.60;47.70;;;;;;5047119;28;19920;-89
2022/03/06 03:43:07;;;;;;;;;;;4.60;47.70;;;;;;5054365;28;19924;-89
2022/03/06 03:45:32;;;;;;;;;;;4.50;47.70;;;;;;5071347;28;19917;-88
2022/03/06 03:47:58;;;;;;;;;;;4.50;47.80;;;;;;5062060;28;19916;-88
2022/03/06 03:50:23;;;;;;;;;;;4.50;47.90;;;;;;5071932;28;19922;-88
2022/03/06 03:52:49;;;;;;;;;;;4.50;47.90;;;;;;5058247;28;19920;-88
2022/03/06 03:55:14;;;;;;;;;;;4.50;48.00;;;;;;5068211;28;19942;-88
2022/03/06 03:57:40;;;;;;;;;;;4.60;48.00;;;;;;5066147;28;19921;-89
2022/03/06 04:00:06;;;;;;;;;;;4.60;48.00;;;;;;5054288;28;19951;-88
2022/03/06 04:02:32;;;;;;;;;;;4.70;48.10;;;;;;5044415;28;19970;-89
2022/03/06 04:04:57;;;;;;;;;;;4.70;48.10;;;;;;5054633;28;19913;-88
2022/03/06 04:07:23;;;;;;;;;;;4.70;48.10;;;;;;5043421;28;20375;-88
2022/03/06 04:09:48;;;;;;;;;;;4.70;48.00;;;;;;5054270;28;19916;-89
2022/03/06 04:12:14;;;;;;;;;;;4.70;48.00;;;;;;5064654;28;20011;-89
2022/03/06 04:14:39;;;;;;;;;;;4.70;48.00;;;;;;5049053;28;19909;-87
2022/03/06 04:17:05;;;;;;;;;;;4.80;48.00;;;;;;5070013;28;19917;-89
2022/03/06 04:19:30;;;;;;;;;;;4.70;48.00;;;;;;5054123;28;20375;-87
2022/03/06 04:21:56;;;;;;;;;;;4.80;48.10;;;;;;5034348;28;19925;-87
2022/03/06 04:24:21;;;;;;;;;;;4.80;48.20;;;;;;5035254;28;19917;-88
2022/03/06 04:26:47;;;;;;;;;;;4.80;48.30;;;;;;5053399;28;20010;-88
2022/03/06 04:29:13;;;;;;;;;;;4.80;48.20;;;;;;5034637;28;19912;-88
2022/03/06 04:31:38;;;;;;;;;;;4.80;48.10;;;;;;5038700;28;19928;-88
2022/03/06 04:34:04;;;;;;;;;;;4.70;48.10;;;;;;5061073;28;19919;-88
2022/03/06 04:36:29;;;;;;;;;;;4.80;48.10;;;;;;5054189;28;19916;-89
2022/03/06 04:38:55;;;;;;;;;;;4.80;48.10;;;;;;5073310;28;19913;-89
2022/03/06 04:41:20;;;;;;;;;;;4.70;48.10;;;;;;5065340;28;20387;-88
2022/03/06 04:43:46;;;;;;;;;;;4.70;48.10;;;;;;5052709;28;20404;-88
2022/03/06 04:46:12;;;;;;;;;;;4.70;48.00;;;;;;5071594;28;19926;-88
2022/03/06 04:48:39;;;;;;;;;;;4.60;48.10;;;;;;5046850;28;19921;-89
2022/03/06 04:51:04;;;;;;;;;;;4.50;48.10;;;;;;5061746;28;19928;-89
2022/03/06 04:53:30;;;;;;;;;;;4.50;48.00;;;;;;5043115;28;19913;-89
2022/03/06 04:55:56;;;;;;;;;;;4.50;48.10;;;;;;5075991;28;19920;-89
2022/03/06 04:58:21;;;;;;;;;;;4.40;48.10;;;;;;5070424;28;19913;-89
2022/03/06 05:00:47;;;;;;;;;;;4.40;48.20;;;;;;5062066;28;20048;-89
2022/03/06 05:03:12;;;;;;;;;;;4.30;48.20;;;;;;5040632;28;20369;-88
2022/03/06 05:05:38;;;;;;;;;;;4.20;48.40;;;;;;5036240;28;19925;-89
2022/03/06 05:08:05;;;;;;;;;;;4.10;48.30;;;;;;5035687;28;19916;-89
2022/03/06 05:10:30;;;;;;;;;;;4.10;48.30;;;;;;5046892;28;19923;-88
2022/03/06 05:12:55;;;;;;;;;;;4.00;48.40;;;;;;5041368;28;19916;-87
2022/03/06 05:15:21;;;;;;;;;;;3.90;48.50;;;;;;5061067;28;20314;-88
2022/03/06 05:17:46;;;;;;;;;;;3.90;48.60;;;;;;5064506;28;20368;-88
2022/03/06 05:20:12;;;;;;;;;;;3.90;48.50;;;;;;5054461;28;19917;-89
2022/03/06 05:22:38;;;;;;;;;;;3.80;48.50;;;;;;5040300;28;19916;-88
2022/03/06 05:25:05;;;;;;;;;;;3.80;48.50;;;;;;5055672;28;19908;-88
2022/03/06 05:27:31;;;;;;;;;;;3.80;48.70;;;;;;5073186;28;19916;-88
2022/03/06 05:29:56;;;;;;;;;;;3.80;48.90;;;;;;5056116;28;20422;-88
2022/03/06 05:32:22;;;;;;;;;;;3.70;48.90;;;;;;5054578;28;19912;-88
2022/03/06 05:34:47;;;;;;;;;;;3.80;49.30;;;;;;5072386;28;19934;-89
2022/03/06 05:37:13;;;;;;;;;;;3.80;49.30;;;;;;5057421;28;20228;-89
2022/03/06 05:39:38;;;;;;;;;;;3.70;49.10;;;;;;5073079;28;20360;-89
2022/03/06 05:42:04;;;;;;;;;;;3.70;49.00;;;;;;5076477;28;19912;-86
2022/03/06 05:44:29;;;;;;;;;;;3.70;49.00;;;;;;5079318;28;19918;-87
2022/03/06 05:46:55;;;;;;;;;;;3.70;49.00;;;;;;5064165;28;19966;-88
2022/03/06 05:49:20;;;;;;;;;;;3.60;49.00;;;;;;5046556;28;19923;-88
2022/03/06 05:51:46;;;;;;;;;;;3.60;49.10;;;;;;5044675;28;19917;-89
2022/03/06 05:54:11;;;;;;;;;;;3.60;49.10;;;;;;5068602;28;19913;-88
2022/03/06 05:56:39;;;;;;;;;;;3.70;49.20;;;;;;5052368;28;19982;-88
2022/03/06 05:59:04;;;;;;;;;;;3.70;49.20;;;;;;5052230;28;19935;-89
2022/03/06 06:01:31;;;;;;;;;;;3.70;49.20;;;;;;5055396;28;19917;-89
2022/03/06 06:03:57;;;;;;;;;;;3.80;49.30;;;;;;5041533;28;19916;-89
2022/03/06 06:06:23;;;;;;;;;;;3.80;49.30;;;;;;5043800;28;19921;-89
2022/03/06 06:08:48;;;;;;;;;;;3.80;49.30;;;;;;5064582;28;20458;-88
2022/03/06 06:11:14;;;;;;;;;;;3.80;49.30;;;;;;5045630;28;19916;-88
2022/03/06 06:13:39;;;;;;;;;;;3.90;49.30;;;;;;5043388;28;19923;-88
2022/03/06 06:16:05;;;;;;;;;;;3.90;49.30;;;;;;5066426;28;19920;-89
2022/03/06 06:18:31;;;;;;;;;;;4.00;49.20;;;;;;5048275;28;20293;-89
2022/03/06 06:20:57;;;;;;;;;;;4.00;49.20;;;;;;5074225;28;19916;-88
2022/03/06 06:23:22;;;;;;;;;;;4.00;49.20;;;;;;5056132;28;19924;-89
2022/03/06 06:25:48;;;;;;;;;;;4.00;49.20;;;;;;5054777;28;20406;-88
2022/03/06 06:28:13;;;;;;;;;;;4.00;49.20;;;;;;5074731;28;19979;-88
2022/03/06 06:30:39;;;;;;;;;;;4.00;49.20;;;;;;5056197;28;19919;-88
2022/03/06 06:33:05;;;;;;;;;;;3.90;49.20;;;;;;5073719;28;19920;-88
2022/03/06 06:35:30;;;;;;;;;;;3.90;49.30;;;;;;5056394;28;19916;-88
2022/03/06 06:37:56;;;;;;;;;;;3.90;49.40;;;;;;5074556;28;19947;-88
2022/03/06 06:40:21;;;;;;;;;;;4.00;49.40;;;;;;5074001;28;19951;-89
2022/03/06 06:42:47;;;;;;;;;;;3.90;49.50;;;;;;5073994;28;19985;-87
2022/03/06 06:45:14;;;;;;;;;;;3.90;49.60;;;;;;5074263;28;19966;-89
2022/03/06 06:47:39;;;;;;;;;;;4.00;49.80;;;;;;5057632;28;19924;-88
2022/03/06 06:50:05;;;;;;;;;;;4.00;50.20;;;;;;5056065;28;20007;-88
2022/03/06 06:52:31;;;;;;;;;;;4.10;50.30;;;;;;5055974;28;19919;-88
2022/03/06 06:54:56;;;;;;;;;;;4.20;50.40;;;;;;5055329;28;20383;-88
2022/03/06 06:57:22;;;;;;;;;;;4.30;50.40;;;;;;5041455;28;20444;-89
2022/03/06 06:59:47;;;;;;;;;;;4.40;50.50;;;;;;5056697;28;19916;-88
2022/03/06 07:02:13;;;;;;;;;;;4.40;50.70;;;;;;5055781;28;20027;-89
2022/03/06 07:04:38;;;;;;;;;;;4.60;50.80;;;;;;5056820;28;20376;-89
2022/03/06 07:07:04;;;;;;;;;;;4.70;50.90;;;;;;5074361;28;19936;-89
2022/03/06 07:09:29;;;;;;;;;;;4.80;51.20;;;;;;5057877;28;19928;-89
2022/03/06 07:11:55;;;;;;;;;;;5.00;51.50;;;;;;5057256;28;19919;-90
2022/03/06 07:14:20;;;;;;;;;;;5.30;51.80;;;;;;5072436;28;19920;-89
2022/03/06 07:16:46;;;;;;;;;;;5.50;51.60;;;;;;5075295;28;19923;-87
2022/03/06 07:19:11;;;;;;;;;;;5.70;51.40;;;;;;5075325;28;19916;-88
2022/03/06 07:21:37;;;;;;;;;;;5.90;51.30;;;;;;5076388;28;19973;-89
2022/03/06 07:24:06;;;;;;;;;;;6.00;51.30;;;;;;5055813;28;19916;-89
2022/03/06 07:26:31;;;;;;;;;;;6.20;51.30;;;;;;5074736;28;19927;-89
2022/03/06 07:28:57;;;;;;;;;;;6.50;51.60;;;;;;5075149;28;19927;-88
2022/03/06 07:31:22;;;;;;;;;;;6.80;52.20;;;;;;5080752;28;19924;-88
2022/03/06 07:33:48;;;;;;;;;;;7.20;52.50;;;;;;5055865;28;19940;-88
2022/03/06 07:36:13;;;;;;;;;;;7.70;52.80;;;;;;5056105;28;19970;-89
2022/03/06 07:38:39;;;;;;;;;;;8.00;52.40;;;;;;5039602;28;20750;-89
2022/03/06 07:41:05;;;;;;;;;;;8.40;52.40;;;;;;5074655;28;19920;-88
2022/03/06 07:43:30;;;;;;;;;;;8.80;52.90;;;;;;5057052;28;19948;-89
2022/03/06 07:45:56;;;;;;;;;;;9.30;53.10;;;;;;5075699;28;19930;-88
2022/03/06 07:48:21;;;;;;;;;;;9.80;52.40;;;;;;5074635;28;19962;-88
2022/03/06 07:50:47;;;;;;;;;;;10.40;52.30;;;;;;5073137;28;20368;-88
2022/03/06 07:53:13;;;;;;;;;;;11.00;51.80;;;;;;5056984;28;19919;-88
2022/03/06 07:55:38;;;;;;;;;;;11.20;50.00;;;;;;5045489;28;19924;-88
2022/03/06 07:58:04;;;;;;;;;;;11.50;49.50;;;;;;5072258;28;19970;-89
2022/03/06 08:00:29;;;;;;;;;;;11.70;48.00;;;;;;5054676;28;19960;-88
2022/03/06 08:02:56;;;;;;;;;;;11.70;47.00;;;;;;5072216;28;20034;-88
2022/03/06 08:05:22;;;;;;;;;;;11.60;46.20;;;;;;5053676;28;19921;-88
2022/03/06 08:07:48;;;;;;;;;;;11.50;45.90;;;;;;5045326;28;19967;-87
2022/03/06 08:10:13;;;;;;;;;;;11.40;46.00;;;;;;5052404;28;19963;-89
2022/03/06 08:12:40;;;;;;;;;;;11.30;45.90;;;;;;5051885;28;20388;-87
2022/03/06 08:15:08;;;;;;;;;;;11.40;45.70;;;;;;5048616;28;20010;-88
2022/03/06 08:17:33;;;;;;;;;;;11.40;45.60;;;;;;5054525;28;19912;-88
2022/03/06 08:20:01;;;;;;;;;;;11.40;45.40;;;;;;5053920;28;22233;-88
2022/03/06 08:22:26;;;;;;;;;;;11.50;44.90;;;;;;5073363;28;19944;-88
2022/03/06 08:24:54;;;;;;;;;;;11.50;44.80;;;;;;5054533;28;20363;-90
2022/03/06 08:27:20;;;;;;;;;;;11.50;44.00;;;;;;5073317;28;20324;-88
2022/03/06 08:29:45;;;;;;;;;;;11.50;44.10;;;;;;5073438;28;19917;-88
2022/03/06 08:32:11;;;;;;;;;;;11.50;43.30;;;;;;5054984;28;19916;-88
2022/03/06 08:34:36;;;;;;;;;;;11.40;42.50;;;;;;5054753;28;20560;-88
2022/03/06 08:37:02;;;;;;;;;;;11.30;42.90;;;;;;5051126;28;20011;-88
2022/03/06 08:39:27;;;;;;;;;;;11.30;43.00;;;;;;5071809;28;19916;-87
2022/03/06 08:41:53;;;;;;;;;;;11.30;42.40;;;;;;5072597;28;19916;-88
2022/03/06 08:44:18;;;;;;;;;;;11.20;42.40;;;;;;5054456;28;19967;-90
2022/03/06 08:46:44;;;;;;;;;;;11.20;42.00;;;;;;5072755;28;19924;-89
2022/03/06 08:49:09;;;;;;;;;;;11.20;42.30;;;;;;5074905;28;19915;-89
2022/03/06 08:51:35;;;;;;;;;;;11.20;42.40;;;;;;5055038;28;19924;-88
2022/03/06 08:54:01;;;;;;;;;;;11.20;42.50;;;;;;5054038;28;19917;-88
2022/03/06 08:56:26;;;;;;;;;;;11.20;42.40;;;;;;5056983;28;19923;-87
2022/03/06 08:58:52;;;;;;;;;;;11.30;42.10;;;;;;5070919;28;19920;-88
2022/03/06 09:01:17;;;;;;;;;;;11.30;42.00;;;;;;5055171;28;19967;-89
2022/03/06 09:03:43;;;;;;;;;;;11.30;42.00;;;;;;5054365;28;19913;-89
2022/03/06 09:06:09;;;;;;;;;;;11.30;42.20;;;;;;5058821;28;20411;-89
2022/03/06 09:08:35;;;;;;;;;;;11.40;42.30;;;;;;5078195;28;20015;-89
2022/03/06 09:11:01;;;;;;;;;;;11.50;42.20;;;;;;5077100;28;19924;-89
2022/03/06 09:13:30;;;;;;;;;;;11.60;41.80;;;;;;5059736;28;19917;-88
2022/03/06 09:15:55;;;;;;;;;;;11.70;41.80;;;;;;5059161;28;19940;-88
2022/03/06 09:18:21;;;;;;;;;;;11.80;41.90;;;;;;5058251;28;20287;-88
2022/03/06 09:20:46;;;;;;;;;;;11.90;41.90;;;;;;5044816;28;19983;-89
2022/03/06 09:23:12;;;;;;;;;;;12.00;41.40;;;;;;5046313;28;19912;-88
2022/03/06 09:25:37;;;;;;;;;;;12.10;41.10;;;;;;5049988;28;19944;-88
2022/03/06 09:28:03;;;;;;;;;;;12.20;40.50;;;;;;5047227;28;19923;-88
2022/03/06 09:30:29;;;;;;;;;;;12.20;40.00;;;;;;5065616;28;20284;-88
2022/03/06 09:32:54;;;;;;;;;;;12.20;40.20;;;;;;5050224;28;19916;-88
2022/03/06 09:35:20;;;;;;;;;;;12.20;40.40;;;;;;5054143;28;19920;-88
2022/03/06 09:37:46;;;;;;;;;;;12.30;40.20;;;;;;5037704;28;19921;-89
2022/03/06 09:40:11;;;;;;;;;;;12.40;40.00;;;;;;5047246;28;20283;-88
2022/03/06 09:42:37;;;;;;;;;;;12.40;39.70;;;;;;5054805;28;19958;-89
2022/03/06 09:45:04;;;;;;;;;;;12.50;39.80;;;;;;5066393;28;19917;-87
2022/03/06 09:47:30;;;;;;;;;;;12.50;39.00;;;;;;5071009;28;20299;-88
2022/03/06 09:49:55;;;;;;;;;;;12.50;38.60;;;;;;5067778;28;19912;-88
2022/03/06 09:52:21;;;;;;;;;;;12.50;38.50;;;;;;5056425;28;19927;-88
2022/03/06 09:54:46;;;;;;;;;;;12.50;38.40;;;;;;5072901;28;20012;-90
2022/03/06 09:57:27;;;;;;;;;;;12.50;38.50;;;;;;5061416;28;19916;-89
2022/03/06 09:59:52;;;;;;;;;;;12.50;38.60;;;;;;5054543;28;20481;-87
2022/03/06 10:02:18;;;;;;;;;;;12.60;38.70;;;;;;5069082;28;20015;-86
2022/03/06 10:04:46;;;;;;;;;;;12.60;38.60;;;;;;5064984;28;19908;-87
2022/03/06 10:07:13;;;;;;;;;;;12.60;38.40;;;;;;5073184;28;20283;-88
2022/03/06 10:09:51;;;;;;;;;;;12.70;38.20;;;;;;5060220;28;19940;-87
2022/03/06 10:12:24;;;;;;;;;;;12.70;38.50;;;;;;5058863;28;20368;-86
2022/03/06 10:14:51;;;;;;;;;;;12.70;38.40;;;;;;5055210;28;20367;-88
2022/03/06 10:17:19;;;;;;;;;;;12.80;38.30;;;;;;5041115;28;19923;-88
2022/03/06 10:19:49;;;;;;;;;;;12.80;38.50;;;;;;5073616;28;19923;-89
2022/03/06 10:22:17;;;;;;;;;;;12.90;37.90;;;;;;5064151;28;19974;-88
2022/03/06 10:24:49;;;;;;;;;;;12.90;37.20;;;;;;5060221;28;19999;-87
2022/03/06 10:27:15;;;;;;;;;;;12.80;37.10;;;;;;5060088;28;19923;-88
2022/03/06 10:29:41;;;;;;;;;;;12.80;37.10;;;;;;5060295;28;20368;-88
2022/03/06 10:32:07;;;;;;;;;;;12.80;37.30;;;;;;5076664;28;19934;-85
2022/03/06 10:34:33;;;;;;;;;;;12.80;37.20;;;;;;5058325;28;19923;-87
2022/03/06 10:37:01;;;;;;;;;;;13.00;37.00;;;;;;5057323;28;19962;-87
2022/03/06 10:39:29;;;;;;;;;;;12.90;36.60;;;;;;5058956;28;19950;-87
2022/03/06 10:41:56;;;;;;;;;;;13.00;36.90;;;;;;5054245;28;19917;-89
2022/03/06 10:44:22;;;;;;;;;;;13.10;36.50;;;;;;5078999;28;20354;-89
2022/03/06 10:47:04;;;;;;;;;;;13.10;35.70;;;;;;5058211;28;19923;-88
2022/03/06 10:49:32;;;;;;;;;;;13.00;35.60;;;;;;5077788;28;19952;-88
2022/03/06 10:52:11;;;;;;;;;;;13.00;36.00;;;;;;5058387;28;19928;-88
2022/03/06 10:54:47;;;;;;;;;;;13.10;35.70;;;;;;5042958;28;19962;-91
2022/03/06 10:57:12;;;;;;;;;;;13.10;35.80;;;;;;5039795;28;19916;-88
2022/03/06 10:59:40;;;;;;;;;;;13.30;35.50;;;;;;5038842;28;19974;-87
2022/03/06 11:02:07;;;;;;;;;;;13.30;35.30;;;;;;5039081;28;19923;-87
2022/03/06 11:04:33;;;;;;;;;;;13.40;35.20;;;;;;5056478;28;19924;-87
2022/03/06 11:06:58;;;;;;;;;;;13.70;34.90;;;;;;5055775;28;19920;-89
2022/03/06 11:09:24;;;;;;;;;;;13.90;34.60;;;;;;5055153;28;19921;-88
2022/03/06 11:11:52;;;;;;;;;;;14.10;34.30;;;;;;5038691;28;19916;-86
2022/03/06 11:14:18;;;;;;;;;;;14.30;33.80;;;;;;5045864;28;19921;-88
2022/03/06 11:16:45;;;;;;;;;;;14.40;33.60;;;;;;5057371;28;19915;-86
2022/03/06 11:19:10;;;;;;;;;;;14.60;33.30;;;;;;5057394;28;19927;-87
2022/03/06 11:21:38;;;;;;;;;;;14.60;33.10;;;;;;5057517;28;19908;-88
2022/03/06 11:24:21;;;;;;;;;;;14.70;32.90;;;;;;5058594;28;19920;-88
2022/03/06 11:27:04;;;;;;;;;;;14.80;33.10;;;;;;5075364;28;19916;-87
2022/03/06 11:29:38;;;;;;;;;;;14.90;32.60;;;;;;5051907;28;19916;-86
2022/03/06 11:32:04;;;;;;;;;;;15.00;32.00;;;;;;5058387;28;19909;-86
2022/03/06 11:34:32;;;;;;;;;;;15.00;32.10;;;;;;5075448;28;19920;-88
2022/03/06 11:36:58;;;;;;;;;;;15.20;32.00;;;;;;5074768;28;19916;-86
2022/03/06 11:39:29;;;;;;;;;;;15.30;32.00;;;;;;5063775;28;19928;-87
2022/03/06 11:41:55;;;;;;;;;;;15.50;31.40;;;;;;5073958;28;19916;-87
2022/03/06 11:44:39;;;;;;;;;;;15.60;31.00;;;;;;5054005;28;20569;-87
2022/03/06 11:47:11;;;;;;;;;;;15.60;31.00;;;;;;5071560;28;19916;-86
2022/03/06 11:49:36;;;;;;;;;;;15.50;30.90;;;;;;5053844;28;19966;-86
2022/03/06 11:52:22;;;;;;;;;;;15.30;30.50;;;;;;5040888;28;19951;-85
2022/03/06 11:54:47;;;;;;;;;;;15.20;30.80;;;;;;5045160;28;19916;-87
2022/03/06 11:57:33;;;;;;;;;;;15.10;30.50;;;;;;5043554;28;20264;-86
2022/03/06 12:00:17;;;;;;;;;;;15.00;30.90;;;;;;5053294;28;19928;-87
2022/03/06 12:02:49;;;;;;;;;;;15.20;30.50;;;;;;5072746;28;19920;-88
2022/03/06 12:05:16;;;;;;;;;;;15.20;29.90;;;;;;5045890;28;19917;-87
2022/03/06 12:07:42;;;;;;;;;;;15.30;30.20;;;;;;5073105;28;19912;-86
2022/03/06 12:10:11;;;;;;;;;;;15.30;30.30;;;;;;5057624;28;20003;-88
2022/03/06 12:12:37;;;;;;;;;;;15.30;29.50;;;;;;5056830;28;19916;-88
2022/03/06 12:15:16;;;;;;;;;;;15.10;29.70;;;;;;5074459;28;20325;-87
2022/03/06 12:17:42;;;;;;;;;;;14.90;29.50;;;;;;5065971;28;19919;-87
2022/03/06 12:20:07;;;;;;;;;;;14.80;29.60;;;;;;5055843;28;20488;-86
2022/03/06 12:22:43;;;;;;;;;;;14.80;29.20;;;;;;5049259;28;20003;-86
2022/03/06 12:25:08;;;;;;;;;;;14.70;29.50;;;;;;5066051;28;19928;-87
2022/03/06 12:27:35;;;;;;;;;;;14.50;29.60;;;;;;5052918;28;19917;-87
2022/03/06 12:30:02;;;;;;;;;;;14.30;29.50;;;;;;5053116;28;20288;-86
2022/03/06 12:32:34;;;;;;;;;;;14.20;29.90;;;;;;5073693;28;19923;-87
2022/03/06 12:35:03;;;;;;;;;;;14.10;30.20;;;;;;5055410;28;19928;-86
2022/03/06 12:37:32;;;;;;;;;;;14.70;30.10;;;;;;5052654;28;20007;-87
2022/03/06 12:39:58;;;;;;;;;;;15.10;29.00;;;;;;5063737;28;20744;-87
2022/03/06 12:42:25;;;;;;;;;;;15.00;28.00;;;;;;5049497;28;20344;-87
2022/03/06 12:44:55;;;;;;;;;;;14.70;28.10;;;;;;5049324;28;20325;-87
2022/03/06 12:47:20;;;;;;;;;;;14.40;28.20;;;;;;5047625;28;19937;-86
2022/03/06 12:49:47;;;;;;;;;;;14.30;28.90;;;;;;5044469;28;19917;-87
2022/03/06 12:52:15;;;;;;;;;;;14.30;29.10;;;;;;5059839;28;20347;-87
2022/03/06 12:54:44;;;;;;;;;;;14.30;28.90;;;;;;5069175;28;19942;-87
2022/03/06 12:57:09;;;;;;;;;;;14.00;28.60;;;;;;5065848;28;19920;-87
2022/03/06 12:59:39;;;;;;;;;;;13.80;28.30;;;;;;5053774;28;19917;-87
2022/03/06 13:02:05;;;;;;;;;;;14.00;28.70;;;;;;5054221;28;19917;-87
2022/03/06 13:04:31;;;;;;;;;;;14.20;27.50;;;;;;5073031;28;19916;-88
2022/03/06 13:06:58;;;;;;;;;;;14.00;26.70;;;;;;5047109;28;20042;-87
2022/03/06 13:09:27;;;;;;;;;;;13.70;26.50;;;;;;5074085;28;19942;-87
2022/03/06 13:11:53;;;;;;;;;;;13.70;26.80;;;;;;5044721;28;20260;-86
2022/03/06 13:14:25;;;;;;;;;;;13.50;26.40;;;;;;5059734;28;19924;-87
2022/03/06 13:16:57;;;;;;;;;;;13.30;26.80;;;;;;5045366;28;19912;-88
2022/03/06 13:19:24;;;;;;;;;;;13.20;27.30;;;;;;5064035;28;19942;-87
2022/03/06 13:21:49;;;;;;;;;;;13.00;27.60;;;;;;5060428;28;19916;-87
2022/03/06 13:24:16;;;;;;;;;;;12.90;28.00;;;;;;5048119;28;19920;-87
2022/03/06 13:26:42;;;;;;;;;;;12.80;28.00;;;;;;5051887;28;19976;-88
2022/03/06 13:29:12;;;;;;;;;;;12.80;28.30;;;;;;5050540;28;19947;-88
2022/03/06 13:31:44;;;;;;;;;;;12.80;28.60;;;;;;5073491;28;19909;-86
2022/03/06 13:34:13;;;;;;;;;;;12.80;28.70;;;;;;5051845;28;19916;-89
2022/03/06 13:36:39;;;;;;;;;;;12.80;28.60;;;;;;5062787;28;19912;-88
2022/03/06 13:39:09;;;;;;;;;;;12.70;28.60;;;;;;5053791;28;19913;-88
2022/03/06 13:41:35;;;;;;;;;;;12.60;29.00;;;;;;5052664;28;20330;-88
2022/03/06 13:44:05;;;;;;;;;;;12.50;29.20;;;;;;5046613;28;19995;-87
2022/03/06 13:46:38;;;;;;;;;;;12.40;29.50;;;;;;5070709;28;19965;-87
2022/03/06 13:49:07;;;;;;;;;;;12.40;29.60;;;;;;5042681;28;19996;-87
2022/03/06 13:51:33;;;;;;;;;;;12.40;29.60;;;;;;5045781;28;19921;-87
2022/03/06 13:54:00;;;;;;;;;;;12.30;29.60;;;;;;5048489;28;19909;-87
2022/03/06 13:56:34;;;;;;;;;;;12.30;29.80;;;;;;5052741;28;19916;-87
2022/03/06 13:59:00;;;;;;;;;;;12.30;29.80;;;;;;5065600;28;20283;-86
2022/03/06 14:01:27;;;;;;;;;;;12.30;29.60;;;;;;5050532;28;19927;-87
2022/03/06 14:03:59;;;;;;;;;;;12.30;29.40;;;;;;5069078;28;20299;-86
2022/03/06 14:06:51;;;;;;;;;;;12.20;29.20;;;;;;5051398;28;20390;-85
2022/03/06 14:09:18;;;;;;;;;;;12.20;29.10;;;;;;5048996;28;19920;-87
2022/03/06 14:11:43;;;;;;;;;;;12.00;29.10;;;;;;5076075;28;19920;-86
2022/03/06 14:14:09;;;;;;;;;;;12.00;29.10;;;;;;5066554;28;19916;-87
2022/03/06 14:16:34;;;;;;;;;;;12.00;29.20;;;;;;5064069;28;19920;-87
2022/03/06 14:19:01;;;;;;;;;;;12.00;29.00;;;;;;5051574;28;19916;-87
2022/03/06 14:21:29;;;;;;;;;;;11.90;28.90;;;;;;5044254;28;19921;-86